sensor_id;sensor_type;location;lat;lon;timestamp;temperature;humidity
8957;DHT22;4513;50.054;8.230;2022-10-16T00:00:39;14.50;99.90
8957;DHT22;4513;50.054;8.230;2022-10-16T00:03:07;14.50;99.90
8957;DHT22;4513;50.054;8.230;2022-10-16T00:05:38;14.50;99.90
8957;DHT22;4513;50.054;8.230;2022-10-16T00:08:06;14.50;99.90
8957;DHT22;4513;50.054;8.230;2022-10-16T00:10:33;14.50;99.90
8957;DHT22;4513;50.054;8.230;2022-10-16T00:13:00;14.50;99.90
8957;DHT22;4513;50.054;8.230;2022-10-16T00:15:28;14.50;99.90
8957;DHT22;4513;50.054;8.230;2022-10-16T00:17:55;14.60;99.90
8957;DHT22;4513;50.054;8.230;2022-10-16T00:20:22;14.60;99.90
8957;DHT22;4513;50.054;8.230;2022-10-16T00:22:48;14.70;99.90
8957;DHT22;4513;50.054;8.230;2022-10-16T00:25:15;14.60;99.90
8957;DHT22;4513;50.054;8.230;2022-10-16T00:27:42;14.70;99.90
8957;DHT22;4513;50.054;8.230;2022-10-16T00:30:09;14.50;99.90
8957;DHT22;4513;50.054;8.230;2022-10-16T00:32:38;14.40;99.90
8957;DHT22;4513;50.054;8.230;2022-10-16T00:35:05;14.50;99.90
8957;DHT22;4513;50.054;8.230;2022-10-16T00:37:32;14.50;99.90
8957;DHT22;4513;50.054;8.230;2022-10-16T00:39:59;14.50;99.90
8957;DHT22;4513;50.054;8.230;2022-10-16T00:42:25;14.60;99.90
8957;DHT22;4513;50.054;8.230;2022-10-16T00:44:54;14.60;99.90
8957;DHT22;4513;50.054;8.230;2022-10-16T00:47:25;14.50;99.90
8957;DHT22;4513;50.054;8.230;2022-10-16T00:49:58;14.50;99.90
8957;DHT22;4513;50.054;8.230;2022-10-16T00:52:26;14.60;99.90
8957;DHT22;4513;50.054;8.230;2022-10-16T00:54:53;14.70;99.90
8957;DHT22;4513;50.054;8.230;2022-10-16T00:57:21;14.60;99.90
8957;DHT22;4513;50.054;8.230;2022-10-16T00:59:48;14.70;99.90
8957;DHT22;4513;50.054;8.230;2022-10-16T01:02:17;14.70;99.90
8957;DHT22;4513;50.054;8.230;2022-10-16T01:04:47;14.70;99.90
8957;DHT22;4513;50.054;8.230;2022-10-16T01:07:30;14.80;99.90
8957;DHT22;4513;50.054;8.230;2022-10-16T01:10:06;14.70;99.90
8957;DHT22;4513;50.054;8.230;2022-10-16T01:12:40;14.70;99.90
8957;DHT22;4513;50.054;8.230;2022-10-16T01:15:18;14.50;99.90
8957;DHT22;4513;50.054;8.230;2022-10-16T01:17:53;14.50;99.90
8957;DHT22;4513;50.054;8.230;2022-10-16T01:20:27;14.50;99.90
8957;DHT22;4513;50.054;8.230;2022-10-16T01:23:04;14.50;99.90
8957;DHT22;4513;50.054;8.230;2022-10-16T01:25:45;14.50;99.90
8957;DHT22;4513;50.054;8.230;2022-10-16T01:28:19;14.60;99.90
8957;DHT22;4513;50.054;8.230;2022-10-16T01:30:50;14.60;99.90
8957;DHT22;4513;50.054;8.230;2022-10-16T01:33:22;14.70;99.90
8957;DHT22;4513;50.054;8.230;2022-10-16T01:35:53;14.70;99.90
8957;DHT22;4513;50.054;8.230;2022-10-16T01:38:26;14.70;99.90
8957;DHT22;4513;50.054;8.230;2022-10-16T01:40:59;14.80;99.90
8957;DHT22;4513;50.054;8.230;2022-10-16T01:43:33;14.80;99.90
8957;DHT22;4513;50.054;8.230;2022-10-16T01:46:00;14.80;99.90
8957;DHT22;4513;50.054;8.230;2022-10-16T01:48:29;14.90;99.90
8957;DHT22;4513;50.054;8.230;2022-10-16T01:51:03;14.90;99.90
8957;DHT22;4513;50.054;8.230;2022-10-16T01:53:31;14.80;99.90
8957;DHT22;4513;50.054;8.230;2022-10-16T01:55:59;14.70;99.90
8957;DHT22;4513;50.054;8.230;2022-10-16T01:58:30;14.70;99.90
8957;DHT22;4513;50.054;8.230;2022-10-16T02:01:00;14.60;99.90
8957;DHT22;4513;50.054;8.230;2022-10-16T02:03:28;14.60;99.90
8957;DHT22;4513;50.054;8.230;2022-10-16T02:05:57;14.70;99.90
8957;DHT22;4513;50.054;8.230;2022-10-16T02:08:26;14.70;99.90
8957;DHT22;4513;50.054;8.230;2022-10-16T02:10:55;14.80;99.90
8957;DHT22;4513;50.054;8.230;2022-10-16T02:13:26;14.70;99.90
8957;DHT22;4513;50.054;8.230;2022-10-16T02:15:55;14.70;99.90
8957;DHT22;4513;50.054;8.230;2022-10-16T02:18:22;14.70;99.90
8957;DHT22;4513;50.054;8.230;2022-10-16T02:20:55;14.70;99.90
8957;DHT22;4513;50.054;8.230;2022-10-16T02:23:29;14.70;99.90
8957;DHT22;4513;50.054;8.230;2022-10-16T02:25:59;14.70;99.90
8957;DHT22;4513;50.054;8.230;2022-10-16T02:28:34;14.70;99.90
8957;DHT22;4513;50.054;8.230;2022-10-16T02:31:05;14.80;99.90
8957;DHT22;4513;50.054;8.230;2022-10-16T02:33:36;14.80;99.90
8957;DHT22;4513;50.054;8.230;2022-10-16T02:36:04;14.90;99.90
8957;DHT22;4513;50.054;8.230;2022-10-16T02:38:32;14.90;99.90
8957;DHT22;4513;50.054;8.230;2022-10-16T02:40:59;14.90;99.90
8957;DHT22;4513;50.054;8.230;2022-10-16T02:43:26;14.80;99.90
8957;DHT22;4513;50.054;8.230;2022-10-16T02:45:53;14.80;99.90
8957;DHT22;4513;50.054;8.230;2022-10-16T02:48:21;14.80;99.90
8957;DHT22;4513;50.054;8.230;2022-10-16T02:50:48;14.80;99.90
8957;DHT22;4513;50.054;8.230;2022-10-16T02:53:15;14.90;99.90
8957;DHT22;4513;50.054;8.230;2022-10-16T02:55:42;14.80;99.90
8957;DHT22;4513;50.054;8.230;2022-10-16T02:58:09;14.90;99.90
8957;DHT22;4513;50.054;8.230;2022-10-16T03:00:36;14.80;99.90
8957;DHT22;4513;50.054;8.230;2022-10-16T03:03:03;14.70;99.90
8957;DHT22;4513;50.054;8.230;2022-10-16T03:05:31;14.70;99.90
8957;DHT22;4513;50.054;8.230;2022-10-16T03:07:58;14.60;99.90
8957;DHT22;4513;50.054;8.230;2022-10-16T03:10:26;14.60;99.90
8957;DHT22;4513;50.054;8.230;2022-10-16T03:12:53;14.60;99.90
8957;DHT22;4513;50.054;8.230;2022-10-16T03:15:19;14.60;99.90
8957;DHT22;4513;50.054;8.230;2022-10-16T03:17:46;14.70;99.90
8957;DHT22;4513;50.054;8.230;2022-10-16T03:20:13;14.60;99.90
8957;DHT22;4513;50.054;8.230;2022-10-16T03:22:42;14.70;99.90
8957;DHT22;4513;50.054;8.230;2022-10-16T03:25:09;14.80;99.90
8957;DHT22;4513;50.054;8.230;2022-10-16T03:27:36;14.90;99.90
8957;DHT22;4513;50.054;8.230;2022-10-16T03:30:03;14.90;99.90
8957;DHT22;4513;50.054;8.230;2022-10-16T03:32:30;14.90;99.90
8957;DHT22;4513;50.054;8.230;2022-10-16T03:34:57;14.90;99.90
8957;DHT22;4513;50.054;8.230;2022-10-16T03:37:23;14.90;99.90
8957;DHT22;4513;50.054;8.230;2022-10-16T03:39:51;15.00;99.90
8957;DHT22;4513;50.054;8.230;2022-10-16T03:42:18;14.90;99.90
8957;DHT22;4513;50.054;8.230;2022-10-16T03:44:45;14.90;99.90
8957;DHT22;4513;50.054;8.230;2022-10-16T03:47:12;15.00;99.90
8957;DHT22;4513;50.054;8.230;2022-10-16T03:49:39;15.00;99.90
8957;DHT22;4513;50.054;8.230;2022-10-16T03:52:05;15.00;99.90
8957;DHT22;4513;50.054;8.230;2022-10-16T03:54:32;15.10;99.90
8957;DHT22;4513;50.054;8.230;2022-10-16T03:57:00;15.10;99.90
8957;DHT22;4513;50.054;8.230;2022-10-16T03:59:27;15.00;99.90
8957;DHT22;4513;50.054;8.230;2022-10-16T04:01:54;15.10;99.90
8957;DHT22;4513;50.054;8.230;2022-10-16T04:04:20;15.00;99.90
8957;DHT22;4513;50.054;8.230;2022-10-16T04:06:47;15.00;99.90
8957;DHT22;4513;50.054;8.230;2022-10-16T04:09:14;15.00;99.90
8957;DHT22;4513;50.054;8.230;2022-10-16T04:11:41;15.10;99.90
8957;DHT22;4513;50.054;8.230;2022-10-16T04:14:09;15.10;99.90
8957;DHT22;4513;50.054;8.230;2022-10-16T04:16:36;15.10;99.90
8957;DHT22;4513;50.054;8.230;2022-10-16T04:19:03;15.10;99.90
8957;DHT22;4513;50.054;8.230;2022-10-16T04:21:30;15.10;99.90
8957;DHT22;4513;50.054;8.230;2022-10-16T04:23:56;15.10;99.90
8957;DHT22;4513;50.054;8.230;2022-10-16T04:26:23;15.10;99.90
8957;DHT22;4513;50.054;8.230;2022-10-16T04:28:52;15.10;99.90
8957;DHT22;4513;50.054;8.230;2022-10-16T04:31:21;15.10;99.90
8957;DHT22;4513;50.054;8.230;2022-10-16T04:33:47;15.10;99.90
8957;DHT22;4513;50.054;8.230;2022-10-16T04:36:15;15.00;99.90
8957;DHT22;4513;50.054;8.230;2022-10-16T04:38:42;14.90;99.90
8957;DHT22;4513;50.054;8.230;2022-10-16T04:41:08;15.00;99.90
8957;DHT22;4513;50.054;8.230;2022-10-16T04:43:35;14.90;99.90
8957;DHT22;4513;50.054;8.230;2022-10-16T04:46:02;15.00;99.90
8957;DHT22;4513;50.054;8.230;2022-10-16T04:48:31;15.00;99.90
8957;DHT22;4513;50.054;8.230;2022-10-16T04:50:58;15.00;99.90
8957;DHT22;4513;50.054;8.230;2022-10-16T04:53:25;15.00;99.90
8957;DHT22;4513;50.054;8.230;2022-10-16T04:55:52;15.10;99.90
8957;DHT22;4513;50.054;8.230;2022-10-16T04:58:19;15.10;99.90
8957;DHT22;4513;50.054;8.230;2022-10-16T05:00:46;15.20;99.90
8957;DHT22;4513;50.054;8.230;2022-10-16T05:03:13;15.20;99.90
8957;DHT22;4513;50.054;8.230;2022-10-16T05:05:44;15.10;99.90
8957;DHT22;4513;50.054;8.230;2022-10-16T05:08:11;15.10;99.90
8957;DHT22;4513;50.054;8.230;2022-10-16T05:10:38;15.20;99.90
8957;DHT22;4513;50.054;8.230;2022-10-16T05:13:05;15.10;99.90
8957;DHT22;4513;50.054;8.230;2022-10-16T05:15:33;15.10;99.90
8957;DHT22;4513;50.054;8.230;2022-10-16T05:18:00;15.10;99.90
8957;DHT22;4513;50.054;8.230;2022-10-16T05:20:27;15.00;99.90
8957;DHT22;4513;50.054;8.230;2022-10-16T05:22:55;15.10;99.90
8957;DHT22;4513;50.054;8.230;2022-10-16T05:25:22;15.00;99.90
8957;DHT22;4513;50.054;8.230;2022-10-16T05:27:49;15.10;99.90
8957;DHT22;4513;50.054;8.230;2022-10-16T05:30:16;15.10;99.90
8957;DHT22;4513;50.054;8.230;2022-10-16T05:32:46;15.00;99.90
8957;DHT22;4513;50.054;8.230;2022-10-16T05:35:14;15.00;99.90
8957;DHT22;4513;50.054;8.230;2022-10-16T05:37:41;15.00;99.90
8957;DHT22;4513;50.054;8.230;2022-10-16T05:40:10;15.00;99.90
8957;DHT22;4513;50.054;8.230;2022-10-16T05:42:38;15.10;99.90
8957;DHT22;4513;50.054;8.230;2022-10-16T05:45:06;15.00;99.90
8957;DHT22;4513;50.054;8.230;2022-10-16T05:47:33;15.10;99.90
8957;DHT22;4513;50.054;8.230;2022-10-16T05:49:59;15.10;99.90
8957;DHT22;4513;50.054;8.230;2022-10-16T05:52:26;15.10;99.90
8957;DHT22;4513;50.054;8.230;2022-10-16T05:54:53;15.20;99.90
8957;DHT22;4513;50.054;8.230;2022-10-16T05:57:21;15.30;99.90
8957;DHT22;4513;50.054;8.230;2022-10-16T05:59:48;15.30;99.90
8957;DHT22;4513;50.054;8.230;2022-10-16T06:02:15;15.20;99.90
8957;DHT22;4513;50.054;8.230;2022-10-16T06:04:42;15.10;99.90
8957;DHT22;4513;50.054;8.230;2022-10-16T06:07:09;15.10;99.90
8957;DHT22;4513;50.054;8.230;2022-10-16T06:09:36;15.10;99.90
8957;DHT22;4513;50.054;8.230;2022-10-16T06:12:05;15.10;99.90
8957;DHT22;4513;50.054;8.230;2022-10-16T06:14:33;15.20;99.90
8957;DHT22;4513;50.054;8.230;2022-10-16T06:17:00;15.20;99.90
8957;DHT22;4513;50.054;8.230;2022-10-16T06:19:27;15.30;99.90
8957;DHT22;4513;50.054;8.230;2022-10-16T06:21:54;15.30;99.90
8957;DHT22;4513;50.054;8.230;2022-10-16T06:24:23;15.10;99.90
8957;DHT22;4513;50.054;8.230;2022-10-16T06:26:52;15.00;99.90
8957;DHT22;4513;50.054;8.230;2022-10-16T06:29:19;15.00;99.90
8957;DHT22;4513;50.054;8.230;2022-10-16T06:31:47;15.10;99.90
8957;DHT22;4513;50.054;8.230;2022-10-16T06:34:14;15.00;99.90
8957;DHT22;4513;50.054;8.230;2022-10-16T06:36:41;15.10;99.90
8957;DHT22;4513;50.054;8.230;2022-10-16T06:39:08;15.10;99.90
8957;DHT22;4513;50.054;8.230;2022-10-16T06:41:35;15.20;99.90
8957;DHT22;4513;50.054;8.230;2022-10-16T06:44:05;15.20;99.90
8957;DHT22;4513;50.054;8.230;2022-10-16T06:46:33;15.20;99.90
8957;DHT22;4513;50.054;8.230;2022-10-16T06:49:02;15.30;99.90
8957;DHT22;4513;50.054;8.230;2022-10-16T06:51:29;15.20;99.90
8957;DHT22;4513;50.054;8.230;2022-10-16T06:53:57;15.30;99.90
8957;DHT22;4513;50.054;8.230;2022-10-16T06:56:26;15.40;99.90
8957;DHT22;4513;50.054;8.230;2022-10-16T06:58:55;15.40;99.90
8957;DHT22;4513;50.054;8.230;2022-10-16T07:01:23;15.40;99.90
8957;DHT22;4513;50.054;8.230;2022-10-16T07:03:50;15.50;99.90
8957;DHT22;4513;50.054;8.230;2022-10-16T07:06:23;15.40;99.90
8957;DHT22;4513;50.054;8.230;2022-10-16T07:08:51;15.40;99.90
8957;DHT22;4513;50.054;8.230;2022-10-16T07:11:19;15.50;99.90
8957;DHT22;4513;50.054;8.230;2022-10-16T07:13:47;15.60;99.90
8957;DHT22;4513;50.054;8.230;2022-10-16T07:16:15;15.50;99.90
8957;DHT22;4513;50.054;8.230;2022-10-16T07:18:43;15.60;99.90
8957;DHT22;4513;50.054;8.230;2022-10-16T07:21:12;15.60;99.90
8957;DHT22;4513;50.054;8.230;2022-10-16T07:23:41;15.70;99.90
8957;DHT22;4513;50.054;8.230;2022-10-16T07:26:09;15.70;99.90
8957;DHT22;4513;50.054;8.230;2022-10-16T07:28:37;15.70;99.90
8957;DHT22;4513;50.054;8.230;2022-10-16T07:31:06;15.90;99.90
8957;DHT22;4513;50.054;8.230;2022-10-16T07:33:34;15.90;99.90
8957;DHT22;4513;50.054;8.230;2022-10-16T07:36:01;15.90;99.90
8957;DHT22;4513;50.054;8.230;2022-10-16T07:38:28;16.00;99.90
8957;DHT22;4513;50.054;8.230;2022-10-16T07:41:01;15.90;99.90
8957;DHT22;4513;50.054;8.230;2022-10-16T07:43:29;15.80;99.90
8957;DHT22;4513;50.054;8.230;2022-10-16T07:45:57;15.80;99.90
8957;DHT22;4513;50.054;8.230;2022-10-16T07:48:39;15.90;99.90
8957;DHT22;4513;50.054;8.230;2022-10-16T07:51:11;16.10;99.90
8957;DHT22;4513;50.054;8.230;2022-10-16T07:53:39;16.10;99.90
8957;DHT22;4513;50.054;8.230;2022-10-16T07:56:07;16.10;99.90
8957;DHT22;4513;50.054;8.230;2022-10-16T07:58:35;16.10;99.90
8957;DHT22;4513;50.054;8.230;2022-10-16T08:01:03;16.20;99.90
8957;DHT22;4513;50.054;8.230;2022-10-16T08:03:31;16.20;99.90
8957;DHT22;4513;50.054;8.230;2022-10-16T08:05:58;16.30;99.90
8957;DHT22;4513;50.054;8.230;2022-10-16T08:08:25;16.30;99.90
8957;DHT22;4513;50.054;8.230;2022-10-16T08:10:52;16.30;99.90
8957;DHT22;4513;50.054;8.230;2022-10-16T08:13:21;16.30;99.90
8957;DHT22;4513;50.054;8.230;2022-10-16T08:15:48;16.30;99.90
8957;DHT22;4513;50.054;8.230;2022-10-16T08:18:16;16.30;99.90
8957;DHT22;4513;50.054;8.230;2022-10-16T08:20:43;16.30;99.90
8957;DHT22;4513;50.054;8.230;2022-10-16T08:23:11;16.30;99.90
8957;DHT22;4513;50.054;8.230;2022-10-16T08:25:38;16.30;99.90
8957;DHT22;4513;50.054;8.230;2022-10-16T08:28:05;16.30;99.90
8957;DHT22;4513;50.054;8.230;2022-10-16T08:30:34;16.30;99.90
8957;DHT22;4513;50.054;8.230;2022-10-16T08:33:00;16.40;99.90
8957;DHT22;4513;50.054;8.230;2022-10-16T08:35:28;16.50;99.90
8957;DHT22;4513;50.054;8.230;2022-10-16T08:37:54;16.60;99.90
8957;DHT22;4513;50.054;8.230;2022-10-16T08:40:24;16.60;99.90
8957;DHT22;4513;50.054;8.230;2022-10-16T08:43:05;16.50;99.90
8957;DHT22;4513;50.054;8.230;2022-10-16T08:45:46;16.50;99.90
8957;DHT22;4513;50.054;8.230;2022-10-16T08:48:19;16.60;99.90
8957;DHT22;4513;50.054;8.230;2022-10-16T08:50:48;16.60;99.90
8957;DHT22;4513;50.054;8.230;2022-10-16T08:53:20;16.60;99.90
8957;DHT22;4513;50.054;8.230;2022-10-16T08:55:50;16.60;99.90
8957;DHT22;4513;50.054;8.230;2022-10-16T08:58:19;16.70;99.90
8957;DHT22;4513;50.054;8.230;2022-10-16T09:00:49;16.70;99.90
8957;DHT22;4513;50.054;8.230;2022-10-16T09:03:23;16.60;99.90
8957;DHT22;4513;50.054;8.230;2022-10-16T09:06:07;16.60;99.90
8957;DHT22;4513;50.054;8.230;2022-10-16T09:08:44;16.60;99.90
8957;DHT22;4513;50.054;8.230;2022-10-16T09:11:17;16.50;99.90
8957;DHT22;4513;50.054;8.230;2022-10-16T09:13:52;16.60;99.90
8957;DHT22;4513;50.054;8.230;2022-10-16T09:16:26;16.60;99.90
8957;DHT22;4513;50.054;8.230;2022-10-16T09:19:03;16.60;99.90
8957;DHT22;4513;50.054;8.230;2022-10-16T09:21:34;16.60;99.90
8957;DHT22;4513;50.054;8.230;2022-10-16T09:24:10;16.60;99.90
8957;DHT22;4513;50.054;8.230;2022-10-16T09:26:38;16.60;99.90
8957;DHT22;4513;50.054;8.230;2022-10-16T09:29:05;16.80;99.90
8957;DHT22;4513;50.054;8.230;2022-10-16T09:31:36;16.80;99.90
8957;DHT22;4513;50.054;8.230;2022-10-16T09:34:03;16.80;99.90
8957;DHT22;4513;50.054;8.230;2022-10-16T09:36:35;16.80;99.90
8957;DHT22;4513;50.054;8.230;2022-10-16T09:39:06;16.80;99.90
8957;DHT22;4513;50.054;8.230;2022-10-16T09:41:35;16.80;99.90
8957;DHT22;4513;50.054;8.230;2022-10-16T09:44:03;16.70;99.90
8957;DHT22;4513;50.054;8.230;2022-10-16T09:46:33;16.80;99.90
8957;DHT22;4513;50.054;8.230;2022-10-16T09:49:02;17.10;99.90
8957;DHT22;4513;50.054;8.230;2022-10-16T09:51:30;17.30;99.90
8957;DHT22;4513;50.054;8.230;2022-10-16T09:53:59;17.50;99.90
8957;DHT22;4513;50.054;8.230;2022-10-16T09:56:28;17.70;99.90
8957;DHT22;4513;50.054;8.230;2022-10-16T09:58:57;17.90;99.90
8957;DHT22;4513;50.054;8.230;2022-10-16T10:01:29;18.00;99.90
8957;DHT22;4513;50.054;8.230;2022-10-16T10:03:58;17.90;99.90
8957;DHT22;4513;50.054;8.230;2022-10-16T10:06:30;18.00;99.90
8957;DHT22;4513;50.054;8.230;2022-10-16T10:09:02;18.40;99.90
8957;DHT22;4513;50.054;8.230;2022-10-16T10:11:37;18.50;99.90
8957;DHT22;4513;50.054;8.230;2022-10-16T10:14:05;18.50;99.90
8957;DHT22;4513;50.054;8.230;2022-10-16T10:16:32;18.50;99.90
8957;DHT22;4513;50.054;8.230;2022-10-16T10:19:00;18.40;99.90
8957;DHT22;4513;50.054;8.230;2022-10-16T10:21:27;18.30;99.90
8957;DHT22;4513;50.054;8.230;2022-10-16T10:23:57;18.10;99.90
8957;DHT22;4513;50.054;8.230;2022-10-16T10:26:28;18.40;99.90
8957;DHT22;4513;50.054;8.230;2022-10-16T10:29:03;18.50;99.90
8957;DHT22;4513;50.054;8.230;2022-10-16T10:31:38;18.10;99.90
8957;DHT22;4513;50.054;8.230;2022-10-16T10:34:32;18.40;99.90
8957;DHT22;4513;50.054;8.230;2022-10-16T10:37:06;18.60;99.90
8957;DHT22;4513;50.054;8.230;2022-10-16T10:39:40;18.80;99.90
8957;DHT22;4513;50.054;8.230;2022-10-16T10:42:17;18.70;99.90
8957;DHT22;4513;50.054;8.230;2022-10-16T10:45:02;18.50;99.90
8957;DHT22;4513;50.054;8.230;2022-10-16T10:47:38;18.70;99.90
8957;DHT22;4513;50.054;8.230;2022-10-16T10:50:14;18.70;99.90
8957;DHT22;4513;50.054;8.230;2022-10-16T10:52:53;18.80;99.90
8957;DHT22;4513;50.054;8.230;2022-10-16T10:55:27;18.80;99.90
8957;DHT22;4513;50.054;8.230;2022-10-16T10:58:22;19.00;99.90
8957;DHT22;4513;50.054;8.230;2022-10-16T11:00:55;19.00;99.90
8957;DHT22;4513;50.054;8.230;2022-10-16T11:03:46;19.00;99.90
8957;DHT22;4513;50.054;8.230;2022-10-16T11:06:17;19.40;99.90
8957;DHT22;4513;50.054;8.230;2022-10-16T11:08:53;19.70;99.90
8957;DHT22;4513;50.054;8.230;2022-10-16T11:11:25;19.70;99.90
8957;DHT22;4513;50.054;8.230;2022-10-16T11:14:00;19.80;99.90
8957;DHT22;4513;50.054;8.230;2022-10-16T11:16:32;19.70;99.90
8957;DHT22;4513;50.054;8.230;2022-10-16T11:19:05;19.90;99.90
8957;DHT22;4513;50.054;8.230;2022-10-16T11:21:43;19.80;99.90
8957;DHT22;4513;50.054;8.230;2022-10-16T11:24:19;19.90;99.90
8957;DHT22;4513;50.054;8.230;2022-10-16T11:26:48;19.70;99.90
8957;DHT22;4513;50.054;8.230;2022-10-16T11:29:19;19.60;99.90
8957;DHT22;4513;50.054;8.230;2022-10-16T11:31:50;19.80;99.90
8957;DHT22;4513;50.054;8.230;2022-10-16T11:34:24;19.70;99.90
8957;DHT22;4513;50.054;8.230;2022-10-16T11:36:56;19.50;99.90
8957;DHT22;4513;50.054;8.230;2022-10-16T11:39:27;19.40;99.90
8957;DHT22;4513;50.054;8.230;2022-10-16T11:41:56;19.40;99.90
8957;DHT22;4513;50.054;8.230;2022-10-16T11:44:40;19.60;99.90
8957;DHT22;4513;50.054;8.230;2022-10-16T11:47:19;19.80;99.90
8957;DHT22;4513;50.054;8.230;2022-10-16T11:49:51;20.00;99.90
8957;DHT22;4513;50.054;8.230;2022-10-16T11:52:25;20.10;99.90
8957;DHT22;4513;50.054;8.230;2022-10-16T11:54:55;20.20;99.90
8957;DHT22;4513;50.054;8.230;2022-10-16T11:57:26;20.30;99.90
8957;DHT22;4513;50.054;8.230;2022-10-16T11:59:57;20.30;99.90
8957;DHT22;4513;50.054;8.230;2022-10-16T12:02:40;20.30;99.90
8957;DHT22;4513;50.054;8.230;2022-10-16T12:05:19;20.20;99.90
8957;DHT22;4513;50.054;8.230;2022-10-16T12:07:54;20.30;99.90
8957;DHT22;4513;50.054;8.230;2022-10-16T12:10:25;20.50;99.90
8957;DHT22;4513;50.054;8.230;2022-10-16T12:12:52;20.50;99.90
8957;DHT22;4513;50.054;8.230;2022-10-16T12:15:22;20.40;99.90
8957;DHT22;4513;50.054;8.230;2022-10-16T12:17:50;20.40;99.90
8957;DHT22;4513;50.054;8.230;2022-10-16T12:20:23;20.50;99.90
8957;DHT22;4513;50.054;8.230;2022-10-16T12:22:55;20.10;99.90
8957;DHT22;4513;50.054;8.230;2022-10-16T12:25:25;20.30;99.90
8957;DHT22;4513;50.054;8.230;2022-10-16T12:27:58;20.10;99.90
8957;DHT22;4513;50.054;8.230;2022-10-16T12:30:26;20.00;99.90
8957;DHT22;4513;50.054;8.230;2022-10-16T12:32:55;20.00;99.90
8957;DHT22;4513;50.054;8.230;2022-10-16T12:35:25;19.90;99.90
8957;DHT22;4513;50.054;8.230;2022-10-16T12:37:54;20.10;99.90
8957;DHT22;4513;50.054;8.230;2022-10-16T12:40:32;20.10;99.90
8957;DHT22;4513;50.054;8.230;2022-10-16T12:43:12;20.30;99.90
8957;DHT22;4513;50.054;8.230;2022-10-16T12:45:39;20.40;99.90
8957;DHT22;4513;50.054;8.230;2022-10-16T12:48:20;20.40;99.90
8957;DHT22;4513;50.054;8.230;2022-10-16T12:50:48;20.30;99.90
8957;DHT22;4513;50.054;8.230;2022-10-16T12:53:20;20.40;99.90
8957;DHT22;4513;50.054;8.230;2022-10-16T12:55:55;20.40;99.90
8957;DHT22;4513;50.054;8.230;2022-10-16T12:58:34;20.40;99.90
8957;DHT22;4513;50.054;8.230;2022-10-16T13:01:09;20.40;99.90
8957;DHT22;4513;50.054;8.230;2022-10-16T13:03:55;20.40;99.90
8957;DHT22;4513;50.054;8.230;2022-10-16T13:06:33;20.60;99.90
8957;DHT22;4513;50.054;8.230;2022-10-16T13:09:27;20.70;99.90
8957;DHT22;4513;50.054;8.230;2022-10-16T13:12:06;20.70;99.90
8957;DHT22;4513;50.054;8.230;2022-10-16T13:15:01;20.70;99.90
8957;DHT22;4513;50.054;8.230;2022-10-16T13:17:38;20.60;99.90
8957;DHT22;4513;50.054;8.230;2022-10-16T13:20:14;20.60;99.90
8957;DHT22;4513;50.054;8.230;2022-10-16T13:22:48;20.50;99.90
8957;DHT22;4513;50.054;8.230;2022-10-16T13:25:24;20.60;99.90
8957;DHT22;4513;50.054;8.230;2022-10-16T13:27:56;20.50;99.90
8957;DHT22;4513;50.054;8.230;2022-10-16T13:30:32;20.50;99.90
8957;DHT22;4513;50.054;8.230;2022-10-16T13:33:02;20.50;99.90
8957;DHT22;4513;50.054;8.230;2022-10-16T13:35:32;20.60;99.90
8957;DHT22;4513;50.054;8.230;2022-10-16T13:38:11;20.60;99.90
8957;DHT22;4513;50.054;8.230;2022-10-16T13:40:50;20.60;99.90
8957;DHT22;4513;50.054;8.230;2022-10-16T13:43:18;20.50;99.90
8957;DHT22;4513;50.054;8.230;2022-10-16T13:45:53;20.50;99.90
8957;DHT22;4513;50.054;8.230;2022-10-16T13:48:20;20.50;99.90
8957;DHT22;4513;50.054;8.230;2022-10-16T13:50:58;20.50;99.90
8957;DHT22;4513;50.054;8.230;2022-10-16T13:53:25;20.40;99.90
8957;DHT22;4513;50.054;8.230;2022-10-16T13:55:53;20.30;99.90
8957;DHT22;4513;50.054;8.230;2022-10-16T13:58:20;20.40;99.90
8957;DHT22;4513;50.054;8.230;2022-10-16T14:00:55;20.40;99.90
8957;DHT22;4513;50.054;8.230;2022-10-16T14:03:22;20.40;99.90
8957;DHT22;4513;50.054;8.230;2022-10-16T14:05:52;20.40;99.90
8957;DHT22;4513;50.054;8.230;2022-10-16T14:08:19;20.40;99.90
8957;DHT22;4513;50.054;8.230;2022-10-16T14:10:49;20.50;99.90
8957;DHT22;4513;50.054;8.230;2022-10-16T14:13:20;20.50;99.90
8957;DHT22;4513;50.054;8.230;2022-10-16T14:15:51;20.50;99.90
8957;DHT22;4513;50.054;8.230;2022-10-16T14:18:22;20.50;99.90
8957;DHT22;4513;50.054;8.230;2022-10-16T14:20:49;20.50;99.90
8957;DHT22;4513;50.054;8.230;2022-10-16T14:23:22;20.50;99.90
8957;DHT22;4513;50.054;8.230;2022-10-16T14:25:49;20.50;99.90
8957;DHT22;4513;50.054;8.230;2022-10-16T14:28:19;20.40;99.90
8957;DHT22;4513;50.054;8.230;2022-10-16T14:30:51;20.40;99.90
8957;DHT22;4513;50.054;8.230;2022-10-16T14:33:21;20.50;99.90
8957;DHT22;4513;50.054;8.230;2022-10-16T14:36:00;20.50;99.90
8957;DHT22;4513;50.054;8.230;2022-10-16T14:38:28;20.50;99.90
8957;DHT22;4513;50.054;8.230;2022-10-16T14:41:00;20.30;99.90
8957;DHT22;4513;50.054;8.230;2022-10-16T14:43:33;20.30;99.90
8957;DHT22;4513;50.054;8.230;2022-10-16T14:46:02;20.30;99.90
8957;DHT22;4513;50.054;8.230;2022-10-16T14:48:32;20.30;99.90
8957;DHT22;4513;50.054;8.230;2022-10-16T14:50:59;20.30;99.90
8957;DHT22;4513;50.054;8.230;2022-10-16T14:53:26;20.20;99.90
8957;DHT22;4513;50.054;8.230;2022-10-16T14:55:52;20.10;99.90
8957;DHT22;4513;50.054;8.230;2022-10-16T14:58:20;20.00;99.90
8957;DHT22;4513;50.054;8.230;2022-10-16T15:00:49;19.90;99.90
8957;DHT22;4513;50.054;8.230;2022-10-16T15:03:16;20.10;99.90
8957;DHT22;4513;50.054;8.230;2022-10-16T15:05:43;20.00;99.90
8957;DHT22;4513;50.054;8.230;2022-10-16T15:08:10;19.90;99.90
8957;DHT22;4513;50.054;8.230;2022-10-16T15:10:40;19.90;99.90
8957;DHT22;4513;50.054;8.230;2022-10-16T15:13:11;19.80;99.90
8957;DHT22;4513;50.054;8.230;2022-10-16T15:15:41;19.90;99.90
8957;DHT22;4513;50.054;8.230;2022-10-16T15:18:10;19.90;99.90
8957;DHT22;4513;50.054;8.230;2022-10-16T15:20:38;19.80;99.90
8957;DHT22;4513;50.054;8.230;2022-10-16T15:23:09;19.80;99.90
8957;DHT22;4513;50.054;8.230;2022-10-16T15:25:39;19.90;99.90
8957;DHT22;4513;50.054;8.230;2022-10-16T15:28:09;19.90;99.90
8957;DHT22;4513;50.054;8.230;2022-10-16T15:30:37;19.90;99.90
8957;DHT22;4513;50.054;8.230;2022-10-16T15:33:09;19.90;99.90
8957;DHT22;4513;50.054;8.230;2022-10-16T15:35:39;19.80;99.90
8957;DHT22;4513;50.054;8.230;2022-10-16T15:38:05;19.80;99.90
8957;DHT22;4513;50.054;8.230;2022-10-16T15:40:32;19.80;99.90
8957;DHT22;4513;50.054;8.230;2022-10-16T15:43:03;19.70;99.90
8957;DHT22;4513;50.054;8.230;2022-10-16T15:45:30;19.60;99.90
8957;DHT22;4513;50.054;8.230;2022-10-16T15:47:56;19.60;99.90
8957;DHT22;4513;50.054;8.230;2022-10-16T15:50:23;19.60;99.90
8957;DHT22;4513;50.054;8.230;2022-10-16T15:52:55;19.50;99.90
8957;DHT22;4513;50.054;8.230;2022-10-16T15:55:22;19.50;99.90
8957;DHT22;4513;50.054;8.230;2022-10-16T15:57:49;19.40;99.90
8957;DHT22;4513;50.054;8.230;2022-10-16T16:00:17;19.40;99.90
8957;DHT22;4513;50.054;8.230;2022-10-16T16:02:50;19.40;99.90
8957;DHT22;4513;50.054;8.230;2022-10-16T16:05:18;19.40;99.90
8957;DHT22;4513;50.054;8.230;2022-10-16T16:07:45;19.30;99.90
8957;DHT22;4513;50.054;8.230;2022-10-16T16:10:14;19.40;99.90
8957;DHT22;4513;50.054;8.230;2022-10-16T16:12:41;19.30;99.90
8957;DHT22;4513;50.054;8.230;2022-10-16T16:15:09;19.20;99.90
8957;DHT22;4513;50.054;8.230;2022-10-16T16:17:38;19.20;99.90
8957;DHT22;4513;50.054;8.230;2022-10-16T16:20:06;19.10;99.90